Terminal Aerodrome Forecast
Issued by NWS Omaha/Valley, NE

Home | Current Version | Previous Version | Text Only | Print | Product List | Glossary On
Versions: 1 2 3 4 5 6 7 8 9 10 11 12 13 14 15 16 17 18 19 20 21 22 23 24 25 26 27 28 29 30 31 32 33 34 35 36 37 38 39 40 41 42 43 44 45 46 47
000
FTUS43 KOAX 191254 AAA
TAFLNK
TAF AMD
KLNK 191254Z 1913/2012 33010KT 5SM -RA BKN015 OVC060
     FM191600 33014G24KT P6SM SCT015 BKN050
      TEMPO 1916/1920 4SM -RA BKN015
     FM200100 33010KT P6SM SKC=

USA.gov is the U.S. government's official web portal to all federal, state and local government web resources and services.